This is the latest recevied weather packets stored in our database for station/object WX7FGZ-5. If no packets are shown the sender has not sent any weather packets the latest 10 day(s).
| Time | Temp. | Humidity | Pressure | Rain* | Wind** | Luminosity | Snow |
|---|---|---|---|---|---|---|---|
| 1777929243 | 13.33° C | 40% | 1019.2 hPa | 0 mm | - | 656 W/m² | - |
| 1777928654 | 13.33° C | 39% | 1019.3 hPa | 0 mm | - | 584 W/m² | - |
| 1777928363 | 13.33° C | 41% | 1019.2 hPa | 0 mm | - | 624 W/m² | - |
| 1777928343 | 13.89° C | 37% | 1019.3 hPa | 0 mm | - | 591 W/m² | - |
| 1777928043 | 13.33° C | 41% | 1019.2 hPa | 0 mm | - | 624 W/m² | - |
| 1777927743 | 13.89° C | 41% | 1019.1 hPa | 0 mm | - | 724 W/m² | - |
| 1777927443 | 13.33° C | 42% | 1019.2 hPa | 0 mm | - | 652 W/m² | - |
| 1777927144 | 12.78° C | 42% | 1019.3 hPa | 0 mm | - | 686 W/m² | - |
| 1777926279 | 13.89° C | 39% | 1019.3 hPa | 0 mm | - | 643 W/m² | - |
| 1777925978 | 13.33° C | 40% | 1019.2 hPa | 0 mm | - | 598 W/m² | - |
| 1777925679 | 13.33° C | 42% | 1019.4 hPa | 0 mm | - | 707 W/m² | - |
| 1777925079 | 13.89° C | 40% | 1019.2 hPa | 0 mm | - | 656 W/m² | - |
| 1777924779 | 14.44° C | 38% | 1019.2 hPa | 0 mm | - | 791 W/m² | - |
| 1777924180 | 13.89° C | 35% | 1019.1 hPa | 0 mm | - | 886 W/m² | - |
| 1777923578 | 14.44° C | 36% | 1019.1 hPa | 0 mm | - | 722 W/m² | - |
| 1777923279 | 14.44° C | 37% | 1018.9 hPa | 0 mm | - | 580 W/m² | - |
| 1777922380 | 14.44° C | 39% | 1019.1 hPa | 0 mm | - | 853 W/m² | - |
| 1777921479 | 13.89° C | 40% | 1018.7 hPa | 0 mm | - | 728 W/m² | - |
| 1777920881 | 13.89° C | 41% | 1019.2 hPa | 0 mm | - | 1030 W/m² | - |
| 1777920579 | 13.33° C | 41% | 1019.1 hPa | 0 mm | - | 1016 W/m² | - |
| 1777918503 | 12.22° C | 46% | 1019.2 hPa | 0 mm | - | 689 W/m² | - |
| 1777918206 | 11.67° C | 46% | 1019.4 hPa | 0 mm | - | 552 W/m² | - |
| 1777917905 | 11.67° C | 45% | 1019.8 hPa | 0 mm | - | 577 W/m² | - |
| 1777917616 | 11.67° C | 44% | 1019.9 hPa | 0 mm | - | 487 W/m² | - |
| 1777916702 | 11.67° C | 48% | 1019.6 hPa | 0 mm | - | 480 W/m² | - |
* Rain latest hour (hover to see other rain measurements)
** Current wind speed in m/s (hover to see current wind gust speed)